sensor_id;sensor_type;location;lat;lon;timestamp;pressure;altitude;pressure_sealevel;temperature;humidity
20624;BME280;10471;42.736;23.346;2022-09-09T00:02:27;95757.31;;;16.89;100.00
20624;BME280;10471;42.736;23.346;2022-09-09T00:05:17;95760.13;;;16.84;100.00
20624;BME280;10471;42.736;23.346;2022-09-09T00:07:49;95757.69;;;16.74;100.00
20624;BME280;10471;42.736;23.346;2022-09-09T00:10:18;95754.72;;;16.75;100.00
20624;BME280;10471;42.736;23.346;2022-09-09T00:15:45;95757.38;;;16.67;100.00
20624;BME280;10471;42.736;23.346;2022-09-09T00:21:15;95752.25;;;16.57;100.00
20624;BME280;10471;42.736;23.346;2022-09-09T00:23:54;95746.78;;;16.53;100.00
20624;BME280;10471;42.736;23.346;2022-09-09T00:26:39;95737.69;;;16.54;100.00
20624;BME280;10471;42.736;23.346;2022-09-09T00:31:33;95737.34;;;16.47;100.00
20624;BME280;10471;42.736;23.346;2022-09-09T00:34:05;95740.44;;;16.41;100.00
20624;BME280;10471;42.736;23.346;2022-09-09T00:36:35;95722.38;;;16.38;100.00
20624;BME280;10471;42.736;23.346;2022-09-09T00:39:03;95730.50;;;16.33;100.00
20624;BME280;10471;42.736;23.346;2022-09-09T00:44:30;95724.88;;;16.21;100.00
20624;BME280;10471;42.736;23.346;2022-09-09T00:50:00;95729.34;;;16.12;100.00
20624;BME280;10471;42.736;23.346;2022-09-09T00:58:09;95720.13;;;15.96;100.00
20624;BME280;10471;42.736;23.346;2022-09-09T01:00:49;95725.88;;;15.90;100.00
20624;BME280;10471;42.736;23.346;2022-09-09T01:03:25;95721.31;;;15.90;100.00
20624;BME280;10471;42.736;23.346;2022-09-09T01:14:28;95723.72;;;15.78;100.00
20624;BME280;10471;42.736;23.346;2022-09-09T01:16:59;95728.06;;;15.74;100.00
20624;BME280;10471;42.736;23.346;2022-09-09T01:19:52;95727.69;;;15.68;100.00
20624;BME280;10471;42.736;23.346;2022-09-09T01:28:12;95724.53;;;15.66;100.00
20624;BME280;10471;42.736;23.346;2022-09-09T01:30:42;95728.25;;;15.65;100.00
20624;BME280;10471;42.736;23.346;2022-09-09T01:33:13;95730.44;;;15.63;100.00
20624;BME280;10471;42.736;23.346;2022-09-09T01:35:57;95726.50;;;15.60;100.00
20624;BME280;10471;42.736;23.346;2022-09-09T01:38:26;95725.81;;;15.55;100.00
20624;BME280;10471;42.736;23.346;2022-09-09T01:40:53;95740.47;;;15.52;100.00
20624;BME280;10471;42.736;23.346;2022-09-09T01:43:20;95743.84;;;15.44;100.00
20624;BME280;10471;42.736;23.346;2022-09-09T01:45:49;95743.53;;;15.46;100.00
20624;BME280;10471;42.736;23.346;2022-09-09T01:48:17;95739.31;;;15.45;100.00
20624;BME280;10471;42.736;23.346;2022-09-09T01:50:43;95741.88;;;15.50;100.00
20624;BME280;10471;42.736;23.346;2022-09-09T01:53:08;95744.13;;;15.56;100.00
20624;BME280;10471;42.736;23.346;2022-09-09T01:55:39;95749.44;;;15.56;100.00
20624;BME280;10471;42.736;23.346;2022-09-09T02:00:59;95737.53;;;15.54;100.00
20624;BME280;10471;42.736;23.346;2022-09-09T02:03:28;95745.03;;;15.52;100.00
20624;BME280;10471;42.736;23.346;2022-09-09T02:08:46;95746.59;;;15.53;100.00
20624;BME280;10471;42.736;23.346;2022-09-09T02:13:39;95726.72;;;15.50;100.00
20624;BME280;10471;42.736;23.346;2022-09-09T02:16:08;95723.56;;;15.48;100.00
20624;BME280;10471;42.736;23.346;2022-09-09T02:21:02;95722.41;;;15.41;100.00
20624;BME280;10471;42.736;23.346;2022-09-09T02:23:28;95719.03;;;15.35;100.00
20624;BME280;10471;42.736;23.346;2022-09-09T02:25:55;95728.38;;;15.33;100.00
20624;BME280;10471;42.736;23.346;2022-09-09T02:28:25;95731.63;;;15.30;100.00
20624;BME280;10471;42.736;23.346;2022-09-09T02:30:53;95727.69;;;15.27;100.00
20624;BME280;10471;42.736;23.346;2022-09-09T02:33:26;95733.63;;;15.24;100.00
20624;BME280;10471;42.736;23.346;2022-09-09T02:35:53;95739.19;;;15.23;100.00
20624;BME280;10471;42.736;23.346;2022-09-09T02:38:24;95745.84;;;15.20;100.00
20624;BME280;10471;42.736;23.346;2022-09-09T02:40:51;95745.38;;;15.18;100.00
20624;BME280;10471;42.736;23.346;2022-09-09T02:43:17;95743.19;;;15.07;100.00
20624;BME280;10471;42.736;23.346;2022-09-09T02:48:52;95742.69;;;14.92;100.00
20624;BME280;10471;42.736;23.346;2022-09-09T02:56:38;95741.81;;;15.09;100.00
20624;BME280;10471;42.736;23.346;2022-09-09T02:59:05;95743.38;;;14.97;100.00
20624;BME280;10471;42.736;23.346;2022-09-09T03:01:31;95730.50;;;15.04;100.00
20624;BME280;10471;42.736;23.346;2022-09-09T03:03:57;95736.59;;;15.05;100.00
20624;BME280;10471;42.736;23.346;2022-09-09T03:06:22;95746.94;;;15.06;100.00
20624;BME280;10471;42.736;23.346;2022-09-09T03:08:47;95750.06;;;15.08;100.00
20624;BME280;10471;42.736;23.346;2022-09-09T03:11:15;95743.19;;;15.07;100.00
20624;BME280;10471;42.736;23.346;2022-09-09T03:13:40;95747.50;;;15.03;100.00
20624;BME280;10471;42.736;23.346;2022-09-09T03:16:06;95739.03;;;15.01;100.00
20624;BME280;10471;42.736;23.346;2022-09-09T03:18:31;95741.91;;;15.05;100.00
20624;BME280;10471;42.736;23.346;2022-09-09T03:20:57;95749.66;;;15.01;100.00
20624;BME280;10471;42.736;23.346;2022-09-09T03:23:24;95747.50;;;15.03;100.00
20624;BME280;10471;42.736;23.346;2022-09-09T03:25:50;95738.56;;;14.99;100.00
20624;BME280;10471;42.736;23.346;2022-09-09T03:28:17;95738.47;;;15.04;100.00
20624;BME280;10471;42.736;23.346;2022-09-09T03:30:42;95737.88;;;15.07;100.00
20624;BME280;10471;42.736;23.346;2022-09-09T03:33:08;95735.72;;;15.09;100.00
20624;BME280;10471;42.736;23.346;2022-09-09T03:35:33;95742.63;;;15.10;100.00
20624;BME280;10471;42.736;23.346;2022-09-09T03:37:58;95747.94;;;15.10;100.00
20624;BME280;10471;42.736;23.346;2022-09-09T03:40:26;95741.81;;;15.09;100.00
20624;BME280;10471;42.736;23.346;2022-09-09T03:42:51;95741.63;;;15.06;100.00
20624;BME280;10471;42.736;23.346;2022-09-09T03:45:16;95740.06;;;15.05;100.00
20624;BME280;10471;42.736;23.346;2022-09-09T03:47:42;95743.78;;;15.04;100.00
20624;BME280;10471;42.736;23.346;2022-09-09T03:50:08;95747.50;;;15.03;100.00
20624;BME280;10471;42.736;23.346;2022-09-09T03:52:39;95759.28;;;14.97;100.00
20624;BME280;10471;42.736;23.346;2022-09-09T03:55:06;95762.25;;;14.96;100.00
20624;BME280;10471;42.736;23.346;2022-09-09T03:57:32;95754.06;;;14.92;100.00
20624;BME280;10471;42.736;23.346;2022-09-09T04:00:01;95751.41;;;14.92;100.00
20624;BME280;10471;42.736;23.346;2022-09-09T04:02:26;95753.00;;;14.93;100.00
20624;BME280;10471;42.736;23.346;2022-09-09T04:04:52;95755.75;;;14.88;100.00
20624;BME280;10471;42.736;23.346;2022-09-09T04:07:17;95761.66;;;14.85;100.00
20624;BME280;10471;42.736;23.346;2022-09-09T04:09:42;95765.38;;;14.84;100.00
20624;BME280;10471;42.736;23.346;2022-09-09T04:12:08;95768.13;;;14.79;100.00
20624;BME280;10471;42.736;23.346;2022-09-09T04:14:33;95762.50;;;14.81;100.00
20624;BME280;10471;42.736;23.346;2022-09-09T04:16:59;95750.03;;;14.81;100.00
20624;BME280;10471;42.736;23.346;2022-09-09T04:19:24;95741.59;;;14.79;100.00
20624;BME280;10471;42.736;23.346;2022-09-09T04:21:50;95744.25;;;14.79;100.00
20624;BME280;10471;42.736;23.346;2022-09-09T04:24:17;95744.50;;;14.78;100.00
20624;BME280;10471;42.736;23.346;2022-09-09T04:26:42;95749.97;;;14.68;100.00
20624;BME280;10471;42.736;23.346;2022-09-09T04:29:07;95743.09;;;14.53;100.00
20624;BME280;10471;42.736;23.346;2022-09-09T04:31:33;95753.78;;;14.48;100.00
20624;BME280;10471;42.736;23.346;2022-09-09T04:33:58;95756.59;;;14.52;100.00
20624;BME280;10471;42.736;23.346;2022-09-09T04:36:27;95759.22;;;14.57;100.00
20624;BME280;10471;42.736;23.346;2022-09-09T04:38:53;95754.09;;;14.60;100.00
20624;BME280;10471;42.736;23.346;2022-09-09T04:41:18;95749.16;;;14.54;100.00
20624;BME280;10471;42.736;23.346;2022-09-09T04:43:43;95760.59;;;14.68;100.00
20624;BME280;10471;42.736;23.346;2022-09-09T04:46:09;95765.25;;;14.76;100.00
20624;BME280;10471;42.736;23.346;2022-09-09T04:48:35;95760.06;;;14.84;100.00
20624;BME280;10471;42.736;23.346;2022-09-09T04:51:02;95757.72;;;14.96;100.00
20624;BME280;10471;42.736;23.346;2022-09-09T04:53:30;95747.50;;;15.03;100.00
20624;BME280;10471;42.736;23.346;2022-09-09T04:58:32;95747.47;;;15.21;100.00
20624;BME280;10471;42.736;23.346;2022-09-09T05:03:29;95756.41;;;15.39;100.00
20624;BME280;10471;42.736;23.346;2022-09-09T05:08:30;95748.56;;;15.61;100.00
20624;BME280;10471;42.736;23.346;2022-09-09T05:10:56;95732.19;;;15.67;100.00
20624;BME280;10471;42.736;23.346;2022-09-09T05:13:21;95738.69;;;15.74;100.00
20624;BME280;10471;42.736;23.346;2022-09-09T05:15:54;95736.50;;;15.90;100.00
20624;BME280;10471;42.736;23.346;2022-09-09T05:18:20;95744.75;;;16.02;100.00
20624;BME280;10471;42.736;23.346;2022-09-09T05:20:48;95755.94;;;16.12;100.00
20624;BME280;10471;42.736;23.346;2022-09-09T05:23:13;95751.97;;;16.23;100.00
20624;BME280;10471;42.736;23.346;2022-09-09T05:25:39;95747.22;;;16.34;100.00
20624;BME280;10471;42.736;23.346;2022-09-09T05:28:05;95738.91;;;16.48;100.00
20624;BME280;10471;42.736;23.346;2022-09-09T05:30:32;95744.75;;;16.59;100.00
20624;BME280;10471;42.736;23.346;2022-09-09T05:32:59;95737.81;;;16.71;100.00
20624;BME280;10471;42.736;23.346;2022-09-09T05:35:24;95743.69;;;16.82;100.00
20624;BME280;10471;42.736;23.346;2022-09-09T05:37:50;95741.47;;;16.84;100.00
20624;BME280;10471;42.736;23.346;2022-09-09T05:40:15;95742.63;;;16.91;100.00
20624;BME280;10471;42.736;23.346;2022-09-09T05:42:41;95740.94;;;17.04;100.00
20624;BME280;10471;42.736;23.346;2022-09-09T05:45:07;95746.94;;;17.09;100.00
20624;BME280;10471;42.736;23.346;2022-09-09T05:47:34;95738.06;;;17.22;100.00
20624;BME280;10471;42.736;23.346;2022-09-09T05:50:00;95738.78;;;17.27;100.00
20624;BME280;10471;42.736;23.346;2022-09-09T05:52:25;95755.56;;;17.36;100.00
20624;BME280;10471;42.736;23.346;2022-09-09T05:54:52;95747.59;;;17.45;100.00
20624;BME280;10471;42.736;23.346;2022-09-09T05:57:19;95749.69;;;17.56;100.00
20624;BME280;10471;42.736;23.346;2022-09-09T05:59:45;95750.38;;;17.70;100.00
20624;BME280;10471;42.736;23.346;2022-09-09T06:02:10;95750.41;;;17.78;100.00
20624;BME280;10471;42.736;23.346;2022-09-09T06:04:37;95757.00;;;17.81;100.00
20624;BME280;10471;42.736;23.346;2022-09-09T06:07:04;95765.16;;;17.93;100.00
20624;BME280;10471;42.736;23.346;2022-09-09T06:09:30;95765.19;;;18.10;100.00
20624;BME280;10471;42.736;23.346;2022-09-09T06:11:55;95765.09;;;18.23;100.00
20624;BME280;10471;42.736;23.346;2022-09-09T06:14:23;95767.75;;;18.32;100.00
20624;BME280;10471;42.736;23.346;2022-09-09T06:16:50;95756.47;;;18.51;100.00
20624;BME280;10471;42.736;23.346;2022-09-09T06:19:16;95761.78;;;18.68;100.00
20624;BME280;10471;42.736;23.346;2022-09-09T06:21:41;95770.41;;;18.82;100.00
20624;BME280;10471;42.736;23.346;2022-09-09T06:24:08;95769.16;;;18.88;100.00
20624;BME280;10471;42.736;23.346;2022-09-09T06:26:37;95768.97;;;18.93;100.00
20624;BME280;10471;42.736;23.346;2022-09-09T06:29:05;95771.50;;;18.98;100.00
20624;BME280;10471;42.736;23.346;2022-09-09T06:31:32;95773.69;;;19.13;100.00
20624;BME280;10471;42.736;23.346;2022-09-09T06:33:59;95773.66;;;19.30;100.00
20624;BME280;10471;42.736;23.346;2022-09-09T06:36:28;95770.44;;;19.45;100.00
20624;BME280;10471;42.736;23.346;2022-09-09T06:38:54;95752.28;;;19.59;100.00
20624;BME280;10471;42.736;23.346;2022-09-09T06:41:22;95747.53;;;19.73;100.00
20624;BME280;10471;42.736;23.346;2022-09-09T06:43:48;95754.53;;;19.85;100.00
20624;BME280;10471;42.736;23.346;2022-09-09T06:46:18;95747.53;;;20.01;100.00
20624;BME280;10471;42.736;23.346;2022-09-09T06:48:44;95738.28;;;20.19;100.00
20624;BME280;10471;42.736;23.346;2022-09-09T06:51:12;95751.09;;;20.34;100.00
20624;BME280;10471;42.736;23.346;2022-09-09T06:53:39;95757.88;;;20.52;98.03
20624;BME280;10471;42.736;23.346;2022-09-09T07:01:06;95768.47;;;20.89;96.60
20624;BME280;10471;42.736;23.346;2022-09-09T07:03:32;95758.34;;;21.07;96.16
20624;BME280;10471;42.736;23.346;2022-09-09T07:05:57;95764.97;;;21.21;91.79
20624;BME280;10471;42.736;23.346;2022-09-09T07:08:23;95765.81;;;21.33;91.53
20624;BME280;10471;42.736;23.346;2022-09-09T07:10:50;95766.59;;;21.46;90.90
20624;BME280;10471;42.736;23.346;2022-09-09T07:13:18;95760.97;;;21.59;93.64
20624;BME280;10471;42.736;23.346;2022-09-09T07:15:45;95753.56;;;21.68;88.25
20624;BME280;10471;42.736;23.346;2022-09-09T07:18:10;95756.94;;;21.77;88.45
20624;BME280;10471;42.736;23.346;2022-09-09T07:20:35;95758.50;;;21.78;86.39
20624;BME280;10471;42.736;23.346;2022-09-09T07:23:01;95759.28;;;21.78;87.18
20624;BME280;10471;42.736;23.346;2022-09-09T07:25:26;95749.53;;;21.86;85.40
20624;BME280;10471;42.736;23.346;2022-09-09T07:27:54;95753.56;;;21.92;80.47
20624;BME280;10471;42.736;23.346;2022-09-09T07:30:20;95744.81;;;22.07;81.22
20624;BME280;10471;42.736;23.346;2022-09-09T07:32:45;95752.22;;;22.22;82.97
20624;BME280;10471;42.736;23.346;2022-09-09T07:35:10;95755.97;;;22.44;84.49
20624;BME280;10471;42.736;23.346;2022-09-09T07:37:37;95745.84;;;22.65;81.70
20624;BME280;10471;42.736;23.346;2022-09-09T07:40:03;95746.22;;;22.79;76.20
20624;BME280;10471;42.736;23.346;2022-09-09T07:42:30;95738.22;;;22.95;78.03
20624;BME280;10471;42.736;23.346;2022-09-09T07:44:55;95743.06;;;23.16;75.03
20624;BME280;10471;42.736;23.346;2022-09-09T07:47:21;95752.38;;;23.34;76.88
20624;BME280;10471;42.736;23.346;2022-09-09T07:49:47;95759.19;;;23.59;72.82
20624;BME280;10471;42.736;23.346;2022-09-09T07:52:15;95755.81;;;23.77;68.80
20624;BME280;10471;42.736;23.346;2022-09-09T07:54:40;95742.34;;;23.93;69.70
20624;BME280;10471;42.736;23.346;2022-09-09T07:57:06;95749.88;;;24.03;62.69
20624;BME280;10471;42.736;23.346;2022-09-09T07:59:32;95750.16;;;24.13;63.34
20624;BME280;10471;42.736;23.346;2022-09-09T08:01:57;95744.63;;;24.25;64.59
20624;BME280;10471;42.736;23.346;2022-09-09T08:04:24;95742.69;;;24.41;59.27
20624;BME280;10471;42.736;23.346;2022-09-09T08:06:53;95741.22;;;24.44;58.17
20624;BME280;10471;42.736;23.346;2022-09-09T08:09:19;95746.00;;;24.50;56.93
20624;BME280;10471;42.736;23.346;2022-09-09T08:11:45;95744.47;;;24.18;58.66
20624;BME280;10471;42.736;23.346;2022-09-09T08:14:11;95737.81;;;24.31;56.84
20624;BME280;10471;42.736;23.346;2022-09-09T08:16:40;95743.13;;;24.43;58.61
20624;BME280;10471;42.736;23.346;2022-09-09T08:19:06;95738.31;;;24.52;59.55
20624;BME280;10471;42.736;23.346;2022-09-09T08:21:34;95742.09;;;24.66;56.98
20624;BME280;10471;42.736;23.346;2022-09-09T08:24:00;95735.63;;;24.90;63.66
20624;BME280;10471;42.736;23.346;2022-09-09T08:26:40;95739.59;;;25.14;58.09
20624;BME280;10471;42.736;23.346;2022-09-09T08:29:10;95740.66;;;25.51;58.89
20624;BME280;10471;42.736;23.346;2022-09-09T08:31:47;95733.47;;;25.59;53.36
20624;BME280;10471;42.736;23.346;2022-09-09T08:34:13;95729.75;;;25.89;54.85
20624;BME280;10471;42.736;23.346;2022-09-09T08:36:41;95728.34;;;25.98;53.88
20624;BME280;10471;42.736;23.346;2022-09-09T08:39:08;95724.31;;;26.11;57.26
20624;BME280;10471;42.736;23.346;2022-09-09T08:52:53;95707.59;;;26.57;52.99
20624;BME280;10471;42.736;23.346;2022-09-09T08:55:28;95710.53;;;26.78;54.03
20624;BME280;10471;42.736;23.346;2022-09-09T08:57:57;95713.25;;;26.78;57.50
20624;BME280;10471;42.736;23.346;2022-09-09T09:00:34;95712.25;;;26.90;52.13
20624;BME280;10471;42.736;23.346;2022-09-09T09:03:14;95716.13;;;26.92;50.14
20624;BME280;10471;42.736;23.346;2022-09-09T09:08:39;95715.47;;;26.99;49.92
20624;BME280;10471;42.736;23.346;2022-09-09T09:11:09;95719.16;;;26.87;49.90
20624;BME280;10471;42.736;23.346;2022-09-09T09:13:40;95719.81;;;27.10;49.97
20624;BME280;10471;42.736;23.346;2022-09-09T09:16:32;95721.59;;;26.96;51.58
20624;BME280;10471;42.736;23.346;2022-09-09T09:18:59;95721.06;;;27.16;50.71
20624;BME280;10471;42.736;23.346;2022-09-09T09:24:07;95699.94;;;27.68;51.40
20624;BME280;10471;42.736;23.346;2022-09-09T09:26:37;95708.59;;;27.87;49.42
20624;BME280;10471;42.736;23.346;2022-09-09T09:29:14;95710.00;;;27.71;48.31
20624;BME280;10471;42.736;23.346;2022-09-09T09:31:48;95711.41;;;27.55;50.08
20624;BME280;10471;42.736;23.346;2022-09-09T09:34:16;95711.47;;;27.62;49.89
20624;BME280;10471;42.736;23.346;2022-09-09T09:36:52;95706.53;;;27.71;50.90
20624;BME280;10471;42.736;23.346;2022-09-09T09:39:32;95706.88;;;27.69;48.50
20624;BME280;10471;42.736;23.346;2022-09-09T09:42:16;95697.28;;;27.79;47.82
20624;BME280;10471;42.736;23.346;2022-09-09T09:44:43;95688.38;;;27.75;46.68
20624;BME280;10471;42.736;23.346;2022-09-09T09:47:12;95687.72;;;27.91;47.69
20624;BME280;10471;42.736;23.346;2022-09-09T09:49:39;95684.63;;;27.93;47.51
20624;BME280;10471;42.736;23.346;2022-09-09T09:52:06;95676.19;;;28.08;47.45
20624;BME280;10471;42.736;23.346;2022-09-09T09:54:33;95683.97;;;28.13;47.21
20624;BME280;10471;42.736;23.346;2022-09-09T09:57:28;95676.56;;;28.03;49.25
20624;BME280;10471;42.736;23.346;2022-09-09T10:00:22;95678.72;;;27.81;48.18
20624;BME280;10471;42.736;23.346;2022-09-09T10:02:48;95677.59;;;27.82;47.29
20624;BME280;10471;42.736;23.346;2022-09-09T10:07:57;95679.03;;;27.69;47.33
20624;BME280;10471;42.736;23.346;2022-09-09T10:10:39;95682.53;;;27.73;48.07
20624;BME280;10471;42.736;23.346;2022-09-09T10:18:59;95689.41;;;27.60;49.12
20624;BME280;10471;42.736;23.346;2022-09-09T10:30:01;95695.16;;;26.82;50.24
20624;BME280;10471;42.736;23.346;2022-09-09T10:51:52;95700.13;;;27.10;49.88
20624;BME280;10471;42.736;23.346;2022-09-09T10:57:04;95708.66;;;27.12;52.34
20624;BME280;10471;42.736;23.346;2022-09-09T10:59:34;95698.69;;;27.19;52.18
20624;BME280;10471;42.736;23.346;2022-09-09T11:02:07;95698.25;;;27.17;52.25
20624;BME280;10471;42.736;23.346;2022-09-09T11:04:49;95685.91;;;27.19;51.89
20624;BME280;10471;42.736;23.346;2022-09-09T11:07:28;95694.94;;;27.34;51.29
20624;BME280;10471;42.736;23.346;2022-09-09T11:10:00;95691.84;;;27.35;52.94
20624;BME280;10471;42.736;23.346;2022-09-09T11:12:28;95689.16;;;27.35;51.93
20624;BME280;10471;42.736;23.346;2022-09-09T11:15:04;95686.31;;;27.21;51.85
20624;BME280;10471;42.736;23.346;2022-09-09T11:17:40;95679.44;;;27.31;52.84
20624;BME280;10471;42.736;23.346;2022-09-09T11:20:13;95687.09;;;27.22;53.43
20624;BME280;10471;42.736;23.346;2022-09-09T11:23:13;95678.53;;;27.17;52.97
20624;BME280;10471;42.736;23.346;2022-09-09T11:25:48;95668.72;;;27.05;53.44
20624;BME280;10471;42.736;23.346;2022-09-09T11:42:06;95644.56;;;27.26;53.70
20624;BME280;10471;42.736;23.346;2022-09-09T11:44:32;95628.50;;;27.47;52.47
20624;BME280;10471;42.736;23.346;2022-09-09T11:46:58;95623.13;;;27.54;52.85
20624;BME280;10471;42.736;23.346;2022-09-09T11:51:51;95610.19;;;27.77;52.75
20624;BME280;10471;42.736;23.346;2022-09-09T11:54:30;95605.53;;;27.77;53.46
20624;BME280;10471;42.736;23.346;2022-09-09T11:56:57;95598.97;;;27.82;55.69
20624;BME280;10471;42.736;23.346;2022-09-09T11:59:32;95607.19;;;27.95;52.13
20624;BME280;10471;42.736;23.346;2022-09-09T12:02:00;95610.00;;;28.16;52.06
20624;BME280;10471;42.736;23.346;2022-09-09T12:04:28;95612.81;;;28.30;51.18
20624;BME280;10471;42.736;23.346;2022-09-09T12:11:51;95601.19;;;28.37;50.08
20624;BME280;10471;42.736;23.346;2022-09-09T12:17:23;95592.03;;;28.69;52.47
20624;BME280;10471;42.736;23.346;2022-09-09T12:28:18;95592.63;;;28.24;52.57
20624;BME280;10471;42.736;23.346;2022-09-09T12:33:45;95585.13;;;28.00;52.85
20624;BME280;10471;42.736;23.346;2022-09-09T12:36:27;95585.19;;;28.07;53.49
20624;BME280;10471;42.736;23.346;2022-09-09T12:38:56;95576.25;;;28.07;52.19
20624;BME280;10471;42.736;23.346;2022-09-09T12:41:26;95566.69;;;28.30;52.15
20624;BME280;10471;42.736;23.346;2022-09-09T12:44:08;95556.72;;;28.52;52.21
20624;BME280;10471;42.736;23.346;2022-09-09T12:46:40;95559.41;;;28.55;52.86
20624;BME280;10471;42.736;23.346;2022-09-09T12:52:01;95552.13;;;28.87;53.34
20624;BME280;10471;42.736;23.346;2022-09-09T12:54:29;95560.28;;;28.87;52.94
20624;BME280;10471;42.736;23.346;2022-09-09T12:56:55;95554.88;;;29.01;52.35
20624;BME280;10471;42.736;23.346;2022-09-09T12:59:26;95547.91;;;29.17;52.44
20624;BME280;10471;42.736;23.346;2022-09-09T13:01:58;95542.47;;;29.24;50.80
20624;BME280;10471;42.736;23.346;2022-09-09T13:04:23;95547.53;;;29.36;48.99
20624;BME280;10471;42.736;23.346;2022-09-09T13:06:49;95539.34;;;29.60;49.91
20624;BME280;10471;42.736;23.346;2022-09-09T13:09:14;95544.78;;;29.67;48.72
20624;BME280;10471;42.736;23.346;2022-09-09T13:11:47;95549.44;;;29.56;49.68
20624;BME280;10471;42.736;23.346;2022-09-09T13:14:35;95544.81;;;29.39;48.76
20624;BME280;10471;42.736;23.346;2022-09-09T13:17:04;95550.22;;;29.53;49.39
20624;BME280;10471;42.736;23.346;2022-09-09T13:19:34;95533.91;;;29.60;49.64
20624;BME280;10471;42.736;23.346;2022-09-09T13:22:14;95533.94;;;29.50;48.80
20624;BME280;10471;42.736;23.346;2022-09-09T13:24:45;95522.66;;;29.51;49.18
20624;BME280;10471;42.736;23.346;2022-09-09T13:27:26;95521.50;;;29.52;50.66
20624;BME280;10471;42.736;23.346;2022-09-09T13:29:54;95521.50;;;29.52;50.39
20624;BME280;10471;42.736;23.346;2022-09-09T13:32:21;95519.16;;;29.54;51.80
20624;BME280;10471;42.736;23.346;2022-09-09T13:34:51;95517.63;;;29.46;53.10
20624;BME280;10471;42.736;23.346;2022-09-09T13:37:33;95516.47;;;29.06;50.74
20624;BME280;10471;42.736;23.346;2022-09-09T13:40:00;95512.22;;;29.12;50.68
20624;BME280;10471;42.736;23.346;2022-09-09T13:42:30;95510.63;;;29.17;51.13
20624;BME280;10471;42.736;23.346;2022-09-09T13:44:57;95505.22;;;29.11;53.13
20624;BME280;10471;42.736;23.346;2022-09-09T13:47:30;95502.88;;;29.02;51.24
20624;BME280;10471;42.736;23.346;2022-09-09T13:49:56;95495.13;;;28.87;51.75
20624;BME280;10471;42.736;23.346;2022-09-09T13:52:22;95490.84;;;28.79;52.34
20624;BME280;10471;42.736;23.346;2022-09-09T13:54:49;95489.63;;;28.38;52.55
20624;BME280;10471;42.736;23.346;2022-09-09T13:57:24;95498.97;;;28.65;51.97
20624;BME280;10471;42.736;23.346;2022-09-09T13:59:51;95490.09;;;28.89;52.04
20624;BME280;10471;42.736;23.346;2022-09-09T14:02:17;95494.34;;;29.11;51.87
20624;BME280;10471;42.736;23.346;2022-09-09T14:04:43;95492.81;;;29.10;51.71
20624;BME280;10471;42.736;23.346;2022-09-09T14:07:13;95495.91;;;29.08;51.17
20624;BME280;10471;42.736;23.346;2022-09-09T14:09:40;95485.81;;;28.95;52.38
20624;BME280;10471;42.736;23.346;2022-09-09T14:12:10;95475.31;;;29.17;51.80
20624;BME280;10471;42.736;23.346;2022-09-09T14:14:36;95473.41;;;29.18;51.59
20624;BME280;10471;42.736;23.346;2022-09-09T14:17:01;95477.66;;;29.16;50.09
20624;BME280;10471;42.736;23.346;2022-09-09T14:19:26;95480.75;;;29.17;51.77
20624;BME280;10471;42.736;23.346;2022-09-09T14:21:52;95473.38;;;29.39;51.54
20624;BME280;10471;42.736;23.346;2022-09-09T14:24:17;95477.22;;;29.62;53.68
20624;BME280;10471;42.736;23.346;2022-09-09T14:26:42;95474.03;;;29.81;49.95
20624;BME280;10471;42.736;23.346;2022-09-09T14:29:08;95465.78;;;30.12;50.73
20624;BME280;10471;42.736;23.346;2022-09-09T14:31:33;95463.72;;;30.34;50.22
20624;BME280;10471;42.736;23.346;2022-09-09T14:33:59;95470.63;;;30.42;49.61
20624;BME280;10471;42.736;23.346;2022-09-09T14:36:24;95459.53;;;30.12;48.99
20624;BME280;10471;42.736;23.346;2022-09-09T14:38:51;95468.03;;;30.24;48.95
20624;BME280;10471;42.736;23.346;2022-09-09T14:41:18;95472.97;;;30.50;47.79
20624;BME280;10471;42.736;23.346;2022-09-09T14:43:45;95458.03;;;30.68;47.10
20624;BME280;10471;42.736;23.346;2022-09-09T14:46:16;95458.00;;;30.75;46.69
20624;BME280;10471;42.736;23.346;2022-09-09T14:48:42;95461.91;;;30.74;46.78
20624;BME280;10471;42.736;23.346;2022-09-09T14:51:12;95465.78;;;30.73;46.58
20624;BME280;10471;42.736;23.346;2022-09-09T14:53:39;95470.47;;;30.73;46.00
20624;BME280;10471;42.736;23.346;2022-09-09T14:56:09;95458.75;;;30.79;46.63
20624;BME280;10471;42.736;23.346;2022-09-09T14:58:36;95471.19;;;30.80;46.21
20624;BME280;10471;42.736;23.346;2022-09-09T15:01:07;95474.53;;;30.48;45.16
20624;BME280;10471;42.736;23.346;2022-09-09T15:03:32;95460.44;;;30.59;46.54
20624;BME280;10471;42.736;23.346;2022-09-09T15:05:58;95464.53;;;30.24;47.47
20624;BME280;10471;42.736;23.346;2022-09-09T15:08:24;95477.50;;;29.95;48.79
20624;BME280;10471;42.736;23.346;2022-09-09T15:10:58;95473.13;;;30.15;48.86
20624;BME280;10471;42.736;23.346;2022-09-09T15:13:24;95471.53;;;30.28;49.27
20624;BME280;10471;42.736;23.346;2022-09-09T15:15:50;95476.19;;;30.28;48.71
20624;BME280;10471;42.736;23.346;2022-09-09T15:18:16;95477.13;;;29.90;46.34
20624;BME280;10471;42.736;23.346;2022-09-09T15:20:44;95486.41;;;30.03;45.62
20624;BME280;10471;42.736;23.346;2022-09-09T15:23:11;95482.53;;;30.04;46.53
20624;BME280;10471;42.736;23.346;2022-09-09T15:25:37;95480.19;;;30.02;46.26
20624;BME280;10471;42.736;23.346;2022-09-09T15:28:02;95482.13;;;30.02;47.59
20624;BME280;10471;42.736;23.346;2022-09-09T15:30:27;95478.25;;;30.03;47.40
20624;BME280;10471;42.736;23.346;2022-09-09T15:32:53;95485.59;;;30.06;48.11
20624;BME280;10471;42.736;23.346;2022-09-09T15:35:18;95473.56;;;30.07;48.78